Time;durP1;ratioP1;P1;durP2;ratioP2;P2;SDS_P1;SDS_P2;PMS_P1;PMS_P2;Temp;Humidity;BMP_temperature;BMP_pressure;BME280_temperature;BME280_humidity;BME280_pressure;Samples;Min_cycle;Max_cycle;Signal;HPM_P1;HPM_P2
2021/09/19 00:00:57;;;;;;;4.28;2.88;;;;;;;13.61;78.72;101262.63;5028982;28;20037;-71
2021/09/19 00:03:22;;;;;;;4.60;2.90;;;;;;;13.58;78.94;101264.75;4992253;28;20032;-71
2021/09/19 00:05:48;;;;;;;4.50;3.20;;;;;;;13.55;79.02;101262.50;5009035;28;20030;-72
2021/09/19 00:08:14;;;;;;;7.25;3.20;;;;;;;13.52;79.06;101270.63;5027750;28;20033;-71
2021/09/19 00:10:40;;;;;;;5.28;3.53;;;;;;;13.47;79.27;101265.09;5027703;28;20029;-72
2021/09/19 00:13:06;;;;;;;9.10;3.20;;;;;;;13.40;79.42;101264.94;4989203;28;20472;-72
2021/09/19 00:15:31;;;;;;;6.05;3.10;;;;;;;13.31;79.26;101264.13;5027195;28;20037;-71
2021/09/19 00:17:56;;;;;;;4.60;3.15;;;;;;;13.27;79.44;101260.19;5027932;28;20464;-71
2021/09/19 00:20:22;;;;;;;4.70;3.53;;;;;;;13.23;79.37;101253.69;5009782;28;20033;-71
2021/09/19 00:22:48;;;;;;;5.40;3.13;;;;;;;13.22;79.48;101262.44;5003794;28;20483;-72
2021/09/19 00:25:13;;;;;;;4.15;2.80;;;;;;;13.20;79.64;101257.44;5011422;28;20041;-71
2021/09/19 00:27:39;;;;;;;5.97;3.00;;;;;;;13.17;79.57;101252.53;5009502;28;20033;-71
2021/09/19 00:30:06;;;;;;;5.45;2.80;;;;;;;13.17;79.56;101256.94;5026347;28;20065;-72
2021/09/19 00:32:31;;;;;;;5.40;3.20;;;;;;;13.16;79.74;101253.50;5028468;28;20037;-71
2021/09/19 00:34:57;;;;;;;8.05;2.88;;;;;;;13.15;79.55;101251.88;5010459;28;20055;-72
2021/09/19 00:37:22;;;;;;;4.85;3.40;;;;;;;13.12;79.82;101251.41;5006235;28;20029;-71
2021/09/19 00:39:48;;;;;;;6.15;3.28;;;;;;;13.11;79.81;101253.19;5009119;28;20456;-72
2021/09/19 00:42:14;;;;;;;3.15;2.65;;;;;;;13.09;79.88;101255.16;5026252;28;20026;-71
2021/09/19 00:44:40;;;;;;;6.55;3.13;;;;;;;13.09;79.92;101259.53;5014779;28;20479;-71
2021/09/19 00:47:05;;;;;;;6.05;3.25;;;;;;;13.08;79.80;101252.69;5027081;28;20033;-71
2021/09/19 00:49:31;;;;;;;4.43;2.80;;;;;;;13.04;79.92;101255.63;5011105;28;20125;-72
2021/09/19 00:51:56;;;;;;;4.55;3.15;;;;;;;13.01;79.93;101245.50;5009409;28;20029;-72
2021/09/19 00:54:22;;;;;;;7.78;3.25;;;;;;;13.00;79.93;101253.50;5011780;28;20029;-71
2021/09/19 00:56:54;;;;;;;5.45;3.08;;;;;;;12.98;80.05;101255.47;5012527;28;20057;-71
2021/09/19 00:59:20;;;;;;;11.63;2.90;;;;;;;12.94;80.17;101252.34;5011514;28;20083;-71
2021/09/19 01:01:47;;;;;;;5.45;3.13;;;;;;;12.92;80.16;101254.31;5017006;28;20045;-71
2021/09/19 01:04:14;;;;;;;3.95;2.58;;;;;;;12.90;80.03;101250.22;5028803;28;20099;-72
2021/09/19 01:06:40;;;;;;;4.63;3.10;;;;;;;12.85;80.41;101254.13;5011831;28;20030;-72
2021/09/19 01:09:05;;;;;;;4.78;3.05;;;;;;;12.83;80.49;101247.47;5007094;28;20516;-71
2021/09/19 01:11:31;;;;;;;4.97;3.25;;;;;;;12.79;80.41;101251.31;5009546;28;20052;-71
2021/09/19 01:13:59;;;;;;;4.32;3.10;;;;;;;12.80;80.58;101251.16;5025217;23;20414;-71
2021/09/19 01:16:26;;;;;;;4.10;2.92;;;;;;;12.79;80.52;101251.31;5043548;28;20571;-71
2021/09/19 01:18:51;;;;;;;4.55;2.75;;;;;;;12.78;80.37;101247.91;5030482;28;20056;-71
2021/09/19 01:21:17;;;;;;;4.15;2.75;;;;;;;12.76;80.49;101247.25;5046625;28;20072;-72
2021/09/19 01:23:59;;;;;;;4.70;3.35;;;;;;;12.70;80.52;101236.69;5027986;28;20068;-71
2021/09/19 01:26:25;;;;;;;5.10;2.97;;;;;;;12.64;80.64;101236.34;5023519;28;20039;-71
2021/09/19 01:28:51;;;;;;;4.82;3.03;;;;;;;12.58;80.76;101242.19;5049732;28;20025;-71
2021/09/19 01:31:18;;;;;;;5.25;2.78;;;;;;;12.56;81.05;101244.13;5030693;28;20048;-72
2021/09/19 01:33:43;;;;;;;3.55;2.75;;;;;;;12.54;81.11;101247.84;5030919;28;20028;-72
2021/09/19 01:36:11;;;;;;;4.65;3.00;;;;;;;12.52;81.02;101239.41;5057404;28;20040;-71
2021/09/19 01:38:36;;;;;;;3.83;2.97;;;;;;;12.52;81.10;101244.59;5047670;28;20124;-72
2021/09/19 01:41:02;;;;;;;5.28;2.80;;;;;;;12.50;81.09;101242.16;5029104;28;20037;-72
2021/09/19 01:43:28;;;;;;;4.57;2.65;;;;;;;12.48;81.12;101238.91;5026963;28;20135;-72
2021/09/19 01:45:53;;;;;;;3.83;2.83;;;;;;;12.46;81.07;101238.25;5047523;28;20071;-71
2021/09/19 01:48:19;;;;;;;6.53;3.10;;;;;;;12.43;81.17;101235.94;5045500;28;20029;-71
2021/09/19 01:50:44;;;;;;;4.78;3.00;;;;;;;12.41;81.32;101238.72;5034879;28;20115;-71
2021/09/19 01:53:10;;;;;;;3.65;2.75;;;;;;;12.40;81.22;101234.47;5051172;28;20032;-72
2021/09/19 01:55:35;;;;;;;5.72;2.85;;;;;;;12.40;80.84;101233.69;5029098;28;20037;-71
2021/09/19 01:58:01;;;;;;;4.93;2.80;;;;;;;12.39;81.13;101224.22;5017744;28;20029;-72
2021/09/19 02:00:27;;;;;;;4.45;2.70;;;;;;;12.36;81.21;101222.78;5046876;28;20096;-71
2021/09/19 02:02:52;;;;;;;4.03;2.80;;;;;;;12.34;81.46;101221.28;5028172;28;20075;-72
2021/09/19 02:05:18;;;;;;;3.28;2.47;;;;;;;12.36;81.19;101216.78;5046239;28;20045;-72
2021/09/19 02:07:44;;;;;;;4.25;2.83;;;;;;;12.36;81.15;101220.16;5028388;28;20548;-72
2021/09/19 02:10:12;;;;;;;4.57;2.72;;;;;;;12.34;81.04;101223.88;5045943;28;20035;-71
2021/09/19 02:12:39;;;;;;;4.70;2.67;;;;;;;12.32;81.37;101218.03;5020779;28;20318;-72
2021/09/19 02:15:07;;;;;;;3.22;2.47;;;;;;;12.27;81.45;101214.13;5028493;28;20111;-72
2021/09/19 02:17:32;;;;;;;4.28;3.00;;;;;;;12.25;81.67;101217.84;5045625;28;20368;-72
2021/09/19 02:19:58;;;;;;;3.95;2.85;;;;;;;12.22;81.78;101221.59;5046016;28;20036;-71
2021/09/19 02:22:23;;;;;;;4.88;3.10;;;;;;;12.20;81.88;101218.31;5044016;28;20029;-71
2021/09/19 02:24:49;;;;;;;4.72;3.13;;;;;;;12.17;81.99;101221.25;5032139;28;20475;-72
2021/09/19 02:27:14;;;;;;;3.97;2.90;;;;;;;12.18;82.35;101224.66;5044174;28;20035;-71
2021/09/19 02:29:40;;;;;;;3.67;2.90;;;;;;;12.17;81.89;101217.84;5030415;28;20087;-72
2021/09/19 02:32:06;;;;;;;4.45;3.17;;;;;;;12.16;82.05;101213.59;5041105;28;20100;-71
2021/09/19 02:34:32;;;;;;;6.22;3.10;;;;;;;12.15;82.18;101209.34;5046616;28;20025;-71
2021/09/19 02:36:57;;;;;;;5.20;3.05;;;;;;;12.12;82.43;101209.69;5027502;28;20036;-71
2021/09/19 02:39:23;;;;;;;3.95;2.78;;;;;;;12.12;82.32;101210.50;5044875;28;20503;-71
2021/09/19 02:41:49;;;;;;;4.85;2.65;;;;;;;12.12;82.33;101207.09;5042673;28;20025;-72
2021/09/19 02:44:14;;;;;;;4.93;3.20;;;;;;;12.10;82.17;101199.44;5027903;28;20151;-71
2021/09/19 02:46:40;;;;;;;5.82;3.05;;;;;;;12.08;82.19;101204.78;5028749;28;20032;-71
2021/09/19 02:49:06;;;;;;;4.50;3.00;;;;;;;12.07;81.97;101203.16;5031861;28;20483;-72
2021/09/19 02:51:31;;;;;;;5.40;3.17;;;;;;;12.04;81.85;101203.47;5044968;28;20040;-71
2021/09/19 02:53:57;;;;;;;3.63;2.85;;;;;;;12.01;82.04;101195.97;5030079;28;20029;-72
2021/09/19 02:56:22;;;;;;;3.58;2.95;;;;;;;11.97;82.23;101193.84;5014436;28;20390;-71
2021/09/19 02:58:48;;;;;;;5.90;3.17;;;;;;;11.96;82.12;101200.00;5046829;28;20035;-72
2021/09/19 03:01:13;;;;;;;4.20;3.00;;;;;;;11.93;82.25;101189.94;5013712;28;20025;-72
2021/09/19 03:03:39;;;;;;;6.78;3.40;;;;;;;11.90;82.63;101195.44;5026669;28;20040;-72
2021/09/19 03:06:05;;;;;;;4.82;3.13;;;;;;;11.86;82.65;101200.91;5044451;28;20029;-72
2021/09/19 03:08:30;;;;;;;5.50;3.00;;;;;;;11.85;82.57;101191.50;5047523;28;20071;-72
2021/09/19 03:10:56;;;;;;;4.80;2.80;;;;;;;11.85;82.55;101196.69;5048945;28;20632;-72
2021/09/19 03:13:21;;;;;;;4.78;2.90;;;;;;;11.84;82.68;101194.25;5048054;28;20082;-72
2021/09/19 03:15:47;;;;;;;4.30;2.95;;;;;;;11.81;82.66;101192.78;5050322;28;20041;-72
2021/09/19 03:18:12;;;;;;;6.30;2.92;;;;;;;11.82;82.91;101196.19;5048581;28;20471;-72
2021/09/19 03:20:38;;;;;;;5.30;3.00;;;;;;;11.82;82.37;101196.97;5031122;28;20037;-72
2021/09/19 03:23:03;;;;;;;4.03;2.80;;;;;;;11.81;82.24;101195.38;5048696;28;20792;-72
2021/09/19 03:25:29;;;;;;;5.65;2.97;;;;;;;11.80;82.42;101193.72;5030825;28;20398;-72
2021/09/19 03:27:55;;;;;;;3.70;2.80;;;;;;;11.78;82.66;101197.47;5019991;28;20051;-72
2021/09/19 03:30:20;;;;;;;10.40;2.70;;;;;;;11.76;82.72;101194.22;5031880;28;20043;-72
2021/09/19 03:32:46;;;;;;;5.07;3.10;;;;;;;11.72;82.85;101192.88;5050243;28;20027;-72
2021/09/19 03:35:12;;;;;;;5.35;3.30;;;;;;;11.67;82.83;101194.13;5033503;28;20059;-72
2021/09/19 03:37:39;;;;;;;4.78;3.13;;;;;;;11.66;82.80;101191.72;5009307;28;20062;-72
2021/09/19 03:40:07;;;;;;;4.38;2.80;;;;;;;11.64;82.78;101189.28;5035226;28;20486;-72
2021/09/19 03:42:32;;;;;;;6.40;3.30;;;;;;;11.63;82.87;101189.41;5050529;28;20029;-72
2021/09/19 03:44:58;;;;;;;4.90;2.95;;;;;;;11.62;82.56;101200.75;5032976;28;20510;-72
2021/09/19 03:47:23;;;;;;;3.97;2.78;;;;;;;11.60;82.67;101193.16;5031872;28;20028;-71
2021/09/19 03:49:49;;;;;;;3.50;2.95;;;;;;;11.60;82.77;101197.50;5052193;28;20555;-72
2021/09/19 03:52:15;;;;;;;4.25;2.85;;;;;;;11.58;82.53;101187.25;5048438;28;20064;-72
2021/09/19 03:54:40;;;;;;;5.20;3.00;;;;;;;11.59;82.38;101195.91;5048128;28;20071;-72
2021/09/19 03:57:06;;;;;;;4.85;2.90;;;;;;;11.55;82.45;101199.78;5033771;28;20502;-72
2021/09/19 03:59:31;;;;;;;4.60;3.13;;;;;;;11.53;82.42;101186.94;5036667;28;20024;-72
2021/09/19 04:01:57;;;;;;;3.42;2.95;;;;;;;11.48;82.68;101192.56;5038806;28;20259;-72
2021/09/19 04:04:22;;;;;;;3.28;2.45;;;;;;;11.46;82.99;101193.69;5015332;28;20040;-72
2021/09/19 04:06:48;;;;;;;4.82;3.00;;;;;;;11.43;82.98;101194.81;5037047;28;20033;-72
2021/09/19 04:09:13;;;;;;;4.35;3.00;;;;;;;11.42;83.17;101195.78;5038502;28;20483;-72
2021/09/19 04:11:39;;;;;;;4.45;3.03;;;;;;;11.41;83.33;101196.72;5047335;28;20040;-73
2021/09/19 04:14:04;;;;;;;4.90;2.85;;;;;;;11.39;83.27;101203.84;5046373;28;20048;-72
2021/09/19 04:16:30;;;;;;;5.35;2.63;;;;;;;11.37;83.17;101198.00;5039590;28;20091;-72
2021/09/19 04:18:55;;;;;;;5.25;2.90;;;;;;;11.38;83.27;101204.03;5048100;28;20078;-72
2021/09/19 04:21:21;;;;;;;5.28;2.97;;;;;;;11.37;83.25;101202.38;5047967;28;20029;-72
2021/09/19 04:23:46;;;;;;;6.13;2.92;;;;;;;11.35;83.46;101197.34;5034408;28;20036;-72
2021/09/19 04:26:13;;;;;;;7.53;3.08;;;;;;;11.36;83.46;101200.75;5031854;28;20075;-72
2021/09/19 04:28:38;;;;;;;3.65;3.10;;;;;;;11.32;83.33;101199.41;5046376;28;20061;-72
2021/09/19 04:31:03;;;;;;;3.88;2.58;;;;;;;11.29;83.54;101205.75;5032329;28;20033;-71
2021/09/19 04:33:29;;;;;;;4.90;2.80;;;;;;;11.27;83.51;101202.47;5047247;28;20075;-72
2021/09/19 04:35:54;;;;;;;5.90;2.78;;;;;;;11.25;83.75;101201.81;5048430;28;20071;-72
2021/09/19 04:38:20;;;;;;;5.60;2.83;;;;;;;11.24;83.79;101202.78;5048279;28;20055;-72
2021/09/19 04:40:45;;;;;;;4.88;2.63;;;;;;;11.22;83.67;101208.09;5030441;28;20479;-71
2021/09/19 04:43:14;;;;;;;4.60;3.03;;;;;;;11.22;83.87;101208.09;5028376;28;20029;-72
2021/09/19 04:45:40;;;;;;;4.78;3.50;;;;;;;11.18;83.84;101209.38;5034126;28;20033;-72
2021/09/19 04:48:05;;;;;;;5.63;2.70;;;;;;;11.14;84.14;101208.06;5036240;28;20048;-72
2021/09/19 04:50:31;;;;;;;3.45;2.70;;;;;;;11.12;84.10;101206.59;5027038;28;20030;-72
2021/09/19 04:52:56;;;;;;;4.57;2.90;;;;;;;11.10;84.52;101211.91;5029449;28;20029;-72
2021/09/19 04:55:22;;;;;;;5.20;2.97;;;;;;;11.07;84.49;101213.00;5036183;28;20040;-72
2021/09/19 04:57:47;;;;;;;4.07;3.03;;;;;;;11.06;84.55;101206.22;5030314;28;20474;-72
2021/09/19 05:00:13;;;;;;;6.07;2.67;;;;;;;11.06;84.37;101200.22;5034067;28;20037;-72
2021/09/19 05:02:39;;;;;;;4.15;3.10;;;;;;;11.03;84.12;101209.09;5028407;28;20505;-71
2021/09/19 05:05:05;;;;;;;4.15;3.10;;;;;;;11.01;84.14;101205.84;5032246;28;20044;-72
2021/09/19 05:07:31;;;;;;;7.10;2.83;;;;;;;11.02;84.28;101209.22;5022271;28;20140;-72
2021/09/19 05:09:56;;;;;;;5.03;2.45;;;;;;;11.02;84.07;101207.47;5050394;28;20029;-72
2021/09/19 05:12:22;;;;;;;5.22;2.95;;;;;;;11.03;84.19;101206.50;5050659;28;20040;-72
2021/09/19 05:14:49;;;;;;;5.78;3.15;;;;;;;11.02;84.13;101212.66;5047199;28;20029;-72
2021/09/19 05:17:16;;;;;;;4.80;3.28;;;;;;;11.02;83.90;101211.81;5029828;28;20098;-71
2021/09/19 05:19:41;;;;;;;4.45;2.88;;;;;;;10.98;84.03;101208.75;5032132;28;20684;-72
2021/09/19 05:22:07;;;;;;;6.25;2.80;;;;;;;10.97;84.25;101209.69;5029033;28;20056;-72
2021/09/19 05:24:32;;;;;;;4.82;3.35;;;;;;;10.98;84.03;101213.09;5016597;28;20398;-71
2021/09/19 05:26:58;;;;;;;5.13;3.00;;;;;;;10.96;84.11;101209.84;5036433;28;20411;-71
2021/09/19 05:29:23;;;;;;;4.15;2.88;;;;;;;10.97;84.00;101214.88;5029149;28;20307;-72
2021/09/19 05:31:49;;;;;;;4.45;2.92;;;;;;;10.96;84.37;101197.66;5031280;28;20033;-72
2021/09/19 05:34:14;;;;;;;6.82;3.17;;;;;;;10.98;84.18;101208.75;5051239;28;20025;-72
2021/09/19 05:36:40;;;;;;;4.43;3.17;;;;;;;11.00;83.97;101213.75;5051798;28;20032;-72
2021/09/19 05:39:05;;;;;;;4.25;2.67;;;;;;;11.01;83.86;101211.03;5048070;28;20110;-71
2021/09/19 05:41:32;;;;;;;3.67;2.90;;;;;;;11.00;83.73;101219.78;5047067;28;20044;-72
2021/09/19 05:43:58;;;;;;;4.22;2.97;;;;;;;11.00;84.20;101222.38;5047658;28;20041;-72
2021/09/19 05:46:23;;;;;;;4.47;2.95;;;;;;;11.01;84.73;101224.00;5027408;28;20106;-72
2021/09/19 05:48:49;;;;;;;6.45;3.10;;;;;;;11.02;84.95;101222.22;5046626;28;20070;-72
2021/09/19 05:51:15;;;;;;;4.03;2.90;;;;;;;11.04;85.06;101217.72;5037332;28;20033;-72
2021/09/19 05:53:41;;;;;;;5.22;3.30;;;;;;;11.04;84.95;101215.13;5029364;28;20083;-72
2021/09/19 05:56:07;;;;;;;4.00;2.95;;;;;;;11.06;85.16;101216.59;5048542;28;20454;-72
2021/09/19 05:58:33;;;;;;;3.65;2.58;;;;;;;11.10;85.18;101217.91;5046179;28;20048;-71
2021/09/19 06:00:59;;;;;;;4.93;3.33;;;;;;;11.15;85.12;101216.66;5049139;28;20028;-72
2021/09/19 06:03:24;;;;;;;6.93;3.50;;;;;;;11.21;85.33;101224.66;5045324;28;20568;-72
2021/09/19 06:05:50;;;;;;;5.00;3.10;;;;;;;11.28;85.23;101222.28;5036907;28;20032;-72
2021/09/19 06:08:15;;;;;;;3.70;3.10;;;;;;;11.34;85.30;101220.84;5052782;28;20071;-72
2021/09/19 06:10:41;;;;;;;6.15;3.55;;;;;;;11.40;85.64;101220.28;5048864;28;20068;-72
2021/09/19 06:13:06;;;;;;;9.25;3.30;;;;;;;11.43;85.85;101225.97;5047275;28;20033;-72
2021/09/19 06:15:32;;;;;;;4.40;3.33;;;;;;;11.49;85.74;101230.56;5035523;28;20041;-72
2021/09/19 06:17:58;;;;;;;4.78;3.28;;;;;;;11.57;85.75;101227.22;5047861;28;20036;-72
2021/09/19 06:20:23;;;;;;;5.60;3.05;;;;;;;11.66;85.77;101228.91;5031282;28;20503;-72
2021/09/19 06:22:49;;;;;;;5.95;3.40;;;;;;;11.73;85.92;101223.88;5047054;28;20106;-72
2021/09/19 06:25:15;;;;;;;5.75;3.33;;;;;;;11.81;86.18;101223.13;5042516;28;20037;-72
2021/09/19 06:27:41;;;;;;;4.57;3.03;;;;;;;11.90;86.06;101226.63;5050809;28;20043;-72
2021/09/19 06:30:08;;;;;;;7.40;3.65;;;;;;;12.03;86.17;101219.22;5028302;28;20020;-72
2021/09/19 06:32:33;;;;;;;7.00;3.58;;;;;;;12.21;86.01;101224.34;5041970;28;20076;-72
2021/09/19 06:34:59;;;;;;;6.43;3.75;;;;;;;12.49;85.78;101219.72;5032325;28;20376;-72
2021/09/19 06:37:24;;;;;;;4.72;3.42;;;;;;;12.96;84.83;101220.94;5051164;28;20037;-72
2021/09/19 06:39:49;;;;;;;5.53;3.70;;;;;;;13.74;82.58;101223.06;5047290;28;20036;-72
2021/09/19 06:42:15;;;;;;;4.65;3.30;;;;;;;14.58;80.07;101215.59;5033806;28;20051;-72
2021/09/19 06:44:40;;;;;;;3.83;3.10;;;;;;;15.33;76.20;101221.91;5049627;28;20064;-72
2021/09/19 06:47:06;;;;;;;4.38;2.78;;;;;;;15.89;72.95;101221.50;5052190;28;20029;-72
2021/09/19 06:49:32;;;;;;;4.82;2.85;;;;;;;16.34;71.87;101224.09;5041097;28;20025;-72
2021/09/19 06:51:57;;;;;;;5.85;2.33;;;;;;;16.46;70.42;101216.56;5054619;28;20444;-73
2021/09/19 06:54:23;;;;;;;3.15;2.55;;;;;;;16.49;69.85;101216.22;5049804;28;20033;-72
2021/09/19 06:56:49;;;;;;;6.18;3.22;;;;;;;16.60;69.25;101223.56;5046634;28;20091;-72
2021/09/19 06:59:16;;;;;;;4.50;2.53;;;;;;;16.79;69.54;101226.59;5046294;28;20033;-72
2021/09/19 07:01:42;;;;;;;5.40;3.17;;;;;;;16.99;68.40;101214.53;5037753;28;20091;-72
2021/09/19 07:04:07;;;;;;;4.05;2.72;;;;;;;17.07;68.79;101213.59;5036634;28;20033;-72
2021/09/19 07:06:33;;;;;;;10.80;3.05;;;;;;;17.32;67.54;101225.25;5038044;28;20486;-69
2021/09/19 07:08:58;;;;;;;6.75;3.80;;;;;;;17.57;66.75;101216.16;5061550;28;20537;-69
2021/09/19 07:11:24;;;;;;;4.57;3.05;;;;;;;17.50;66.22;101219.56;5050752;28;20041;-69
2021/09/19 07:13:50;;;;;;;6.57;2.60;;;;;;;16.95;66.99;101217.69;5048063;22;20053;-71
2021/09/19 07:16:15;;;;;;;5.45;2.60;;;;;;;16.42;69.09;101223.97;5044382;28;20391;-72
2021/09/19 07:18:42;;;;;;;4.03;3.10;;;;;;;15.89;71.25;101231.16;5048179;28;20041;-71
2021/09/19 07:21:08;;;;;;;3.92;2.60;;;;;;;15.77;72.51;101229.00;5055977;28;20451;-70
2021/09/19 07:23:34;;;;;;;3.85;2.90;;;;;;;15.69;73.10;101231.69;5044106;28;20086;-70
2021/09/19 07:26:00;;;;;;;3.72;2.35;;;;;;;16.07;71.52;101225.59;5040454;28;20489;-70
2021/09/19 07:28:27;;;;;;;4.00;2.85;;;;;;;16.69;69.87;101226.91;5012840;28;20044;-70
2021/09/19 07:30:53;;;;;;;5.82;3.10;;;;;;;17.11;68.17;101233.16;5036978;28;20109;-71
2021/09/19 07:33:19;;;;;;;3.35;2.75;;;;;;;17.52;65.52;101217.53;4999069;28;20033;-70
2021/09/19 07:35:44;;;;;;;4.13;2.92;;;;;;;17.92;65.61;101226.69;5030462;28;20033;-70
2021/09/19 07:38:10;;;;;;;4.93;2.60;;;;;;;18.31;64.75;101223.44;5028987;28;20037;-71
2021/09/19 07:40:36;;;;;;;4.13;2.45;;;;;;;18.49;63.31;101222.84;5013027;28;20043;-70
2021/09/19 07:43:03;;;;;;;5.95;2.97;;;;;;;18.73;62.84;101228.59;5020701;28;20123;-70
2021/09/19 07:45:28;;;;;;;4.40;2.78;;;;;;;18.90;61.56;101229.03;5018262;28;20044;-70
2021/09/19 07:47:54;;;;;;;4.28;2.95;;;;;;;19.12;61.09;101229.63;5034544;28;20025;-69
2021/09/19 07:50:20;;;;;;;3.88;2.42;;;;;;;19.02;61.56;101227.41;5021728;28;20108;-70
2021/09/19 07:52:47;;;;;;;4.47;2.90;;;;;;;19.45;61.92;101229.63;5026628;28;20030;-70
2021/09/19 07:55:15;;;;;;;5.63;2.97;;;;;;;19.72;59.51;101226.94;5013042;28;20523;-71
2021/09/19 07:57:41;;;;;;;10.07;3.00;;;;;;;20.07;59.25;101229.31;5010529;28;20041;-71
2021/09/19 08:00:08;;;;;;;3.85;2.67;;;;;;;20.27;58.28;101237.94;5024861;28;20522;-71
2021/09/19 08:02:38;;;;;;;7.32;2.70;;;;;;;20.43;57.72;101237.44;5011048;28;20128;-70
2021/09/19 08:05:04;;;;;;;4.65;3.22;;;;;;;20.48;56.81;101239.44;5032569;28;20038;-70
2021/09/19 08:07:29;;;;;;;5.55;3.10;;;;;;;19.82;57.92;101243.97;5010816;28;20407;-70
2021/09/19 08:09:55;;;;;;;4.28;3.13;;;;;;;19.63;58.67;101245.59;5014247;28;20045;-70
2021/09/19 08:12:20;;;;;;;6.82;3.65;;;;;;;19.19;60.11;101249.69;5031299;28;20033;-70
2021/09/19 08:14:46;;;;;;;6.32;3.45;;;;;;;18.84;60.73;101254.28;5015479;28;20033;-69
2021/09/19 08:17:12;;;;;;;3.20;2.63;;;;;;;19.32;60.23;101248.84;5030440;28;20396;-70
2021/09/19 08:19:37;;;;;;;4.65;2.78;;;;;;;20.09;58.11;101248.34;5012804;28;20418;-70
2021/09/19 08:22:03;;;;;;;4.30;3.20;;;;;;;20.69;57.26;101251.50;5028777;28;20029;-71
2021/09/19 08:24:28;;;;;;;4.18;2.40;;;;;;;21.19;55.62;101256.84;5012493;28;20411;-70
2021/09/19 08:26:54;;;;;;;3.58;2.63;;;;;;;21.34;54.09;101250.41;5013223;28;20125;-70
2021/09/19 08:29:20;;;;;;;4.07;2.63;;;;;;;21.75;53.61;101260.38;4999123;28;20038;-71
2021/09/19 08:31:45;;;;;;;3.55;2.75;;;;;;;21.17;54.06;101263.34;4991160;28;20480;-70
2021/09/19 08:34:11;;;;;;;4.78;2.83;;;;;;;20.72;54.79;101266.06;5011304;28;20384;-70
2021/09/19 08:36:37;;;;;;;5.03;2.78;;;;;;;20.77;55.56;101268.88;5005877;28;20033;-72
2021/09/19 08:39:04;;;;;;;3.20;2.38;;;;;;;20.98;55.24;101265.94;5026353;28;20043;-70
2021/09/19 08:41:30;;;;;;;7.15;2.65;;;;;;;21.11;54.55;101272.09;5027787;28;20055;-72
2021/09/19 08:43:55;;;;;;;3.63;2.60;;;;;;;21.30;54.74;101265.06;5010854;28;20033;-71
2021/09/19 08:46:22;;;;;;;3.10;2.42;;;;;;;21.87;53.54;101259.66;5005063;28;20547;-71
2021/09/19 08:48:48;;;;;;;2.88;2.40;;;;;;;22.30;53.04;101261.41;5007562;28;20056;-71
2021/09/19 08:51:14;;;;;;;3.67;2.40;;;;;;;22.57;51.99;101258.44;5007288;28;20387;-70
2021/09/19 08:53:40;;;;;;;2.63;2.20;;;;;;;22.22;51.24;101259.06;5010490;28;20128;-72
2021/09/19 08:56:06;;;;;;;2.72;2.17;;;;;;;21.80;51.53;101270.31;5028477;28;20052;-72
2021/09/19 08:58:32;;;;;;;3.17;2.30;;;;;;;21.51;52.63;101264.72;5014984;28;20471;-72
2021/09/19 09:00:59;;;;;;;3.95;2.25;;;;;;;21.71;52.64;101269.78;5019419;28;20586;-71
2021/09/19 09:03:27;;;;;;;3.38;2.08;;;;;;;21.27;53.04;101271.59;5030951;28;20033;-71
2021/09/19 09:05:54;;;;;;;2.90;2.50;;;;;;;20.67;53.40;101277.25;5012548;28;20049;-70
2021/09/19 09:08:20;;;;;;;3.45;2.63;;;;;;;20.65;54.37;101279.31;5027969;28;20041;-71
2021/09/19 09:10:48;;;;;;;3.05;2.20;;;;;;;20.97;52.79;101277.47;5035662;28;20026;-71
2021/09/19 09:13:20;;;;;;;6.93;2.50;;;;;;;21.04;55.03;101273.97;5025832;28;20025;-73
2021/09/19 09:15:51;;;;;;;3.35;2.15;;;;;;;21.51;54.58;101280.53;5028490;28;20505;-71
2021/09/19 09:18:32;;;;;;;3.28;2.00;;;;;;;21.74;53.24;101266.72;5026905;28;20626;-71
2021/09/19 09:21:01;;;;;;;3.00;2.13;;;;;;;21.70;51.31;101280.53;5026804;28;20029;-72
2021/09/19 09:23:30;;;;;;;2.17;1.73;;;;;;;21.66;52.57;101277.56;5042263;28;20103;-71
2021/09/19 09:26:13;;;;;;;6.88;3.38;;;;;;;21.51;52.99;101277.06;5105609;27;21182;-71
2021/09/19 09:29:01;;;;;;;3.63;2.33;;;;;;;21.14;53.53;101272.50;5104212;28;20043;-71
2021/09/19 09:31:47;;;;;;;3.03;2.38;;;;;;;21.32;54.05;101276.19;5098312;27;20051;-71
2021/09/19 09:34:18;;;;;;;6.32;2.20;;;;;;;21.29;52.41;101274.00;5100968;28;20030;-69
2021/09/19 09:36:49;;;;;;;3.38;2.20;;;;;;;21.36;54.17;101274.72;5105393;28;20143;-71
2021/09/19 09:39:32;;;;;;;2.75;2.10;;;;;;;20.95;52.85;101268.97;5098442;22;20419;-69
2021/09/19 09:42:18;;;;;;;2.83;2.53;;;;;;;20.93;54.40;101264.94;5067228;28;20171;-69
2021/09/19 09:44:46;;;;;;;3.50;2.05;;;;;;;20.94;54.07;101263.91;5069447;28;21038;-69
2021/09/19 09:47:14;;;;;;;3.95;2.20;;;;;;;21.12;54.61;101269.25;5068869;28;20445;-69
2021/09/19 09:49:54;;;;;;;2.75;1.90;;;;;;;21.45;53.00;101260.28;5078027;28;20090;-69
2021/09/19 09:52:24;;;;;;;3.33;2.45;;;;;;;21.53;52.69;101251.28;5085426;28;20181;-69
2021/09/19 09:54:54;;;;;;;2.88;2.17;;;;;;;21.34;53.90;101258.31;5081609;28;20039;-69
2021/09/19 09:57:45;;;;;;;2.83;1.95;;;;;;;21.22;53.03;101258.22;5075728;28;20064;-69
2021/09/19 10:00:17;;;;;;;1.92;1.60;;;;;;;21.41;52.14;101253.00;5063704;28;20047;-69
2021/09/19 10:02:44;;;;;;;2.17;1.97;;;;;;;21.33;52.81;101254.09;5078107;28;20627;-68
2021/09/19 10:05:12;;;;;;;4.47;2.17;;;;;;;21.11;51.51;101259.72;5084955;28;20035;-69
2021/09/19 10:07:40;;;;;;;2.75;1.90;;;;;;;20.99;52.19;101264.88;5078930;28;20036;-69
2021/09/19 10:10:08;;;;;;;4.25;2.15;;;;;;;20.78;51.82;101257.34;5085615;28;20096;-69
2021/09/19 10:12:34;;;;;;;6.00;2.00;;;;;;;20.90;51.42;101260.91;5105883;28;20036;-69
2021/09/19 10:14:59;;;;;;;2.08;1.80;;;;;;;20.89;51.83;101264.56;5085293;28;20056;-69
2021/09/19 10:17:27;;;;;;;1.65;1.30;;;;;;;20.84;50.23;101264.41;5076654;28;20047;-69
2021/09/19 10:19:55;;;;;;;1.88;1.35;;;;;;;21.03;53.13;101251.28;5079381;28;20127;-69
2021/09/19 10:22:47;;;;;;;2.45;1.40;;;;;;;21.13;53.04;101254.25;5082984;28;20044;-69
2021/09/19 10:25:46;;;;;;;4.82;1.65;;;;;;;21.24;49.94;101244.84;5082954;28;20036;-69
2021/09/19 10:28:27;;;;;;;1.90;1.40;;;;;;;21.16;50.35;101253.81;5051783;28;20075;-70
2021/09/19 10:31:08;;;;;;;2.85;1.23;;;;;;;21.23;53.85;101237.94;5077970;28;20040;-68
2021/09/19 10:33:36;;;;;;;2.10;1.40;;;;;;;21.43;50.46;101248.31;5066952;28;20037;-69
2021/09/19 10:36:02;;;;;;;1.45;1.27;;;;;;;21.05;50.84;101246.59;5070767;28;20035;-69
2021/09/19 10:38:39;;;;;;;1.83;1.40;;;;;;;20.98;51.09;101242.19;5070710;28;20037;-69
2021/09/19 10:41:17;;;;;;;1.90;1.60;;;;;;;21.23;51.58;101235.28;5071265;28;20070;-69
2021/09/19 10:44:00;;;;;;;3.08;1.63;;;;;;;21.33;52.14;101241.69;5069533;28;20036;-69
2021/09/19 10:46:35;;;;;;;2.53;1.50;;;;;;;21.31;51.01;101235.84;5103466;28;20089;-69
2021/09/19 10:49:31;;;;;;;1.58;1.20;;;;;;;21.19;51.70;101232.28;5051279;28;20036;-69
2021/09/19 10:52:00;;;;;;;2.85;1.65;;;;;;;21.24;52.12;101229.00;5061004;28;20430;-69
2021/09/19 10:54:51;;;;;;;1.52;1.40;;;;;;;21.48;52.34;101232.69;5069282;28;20021;-69
2021/09/19 10:57:19;;;;;;;1.77;1.48;;;;;;;21.79;49.97;101237.00;5070533;28;20036;-69
2021/09/19 11:00:17;;;;;;;3.30;1.35;;;;;;;21.89;49.14;101232.03;5070068;28;20498;-70
2021/09/19 11:03:07;;;;;;;1.70;1.42;;;;;;;21.88;48.37;101234.91;5068789;28;20038;-70
2021/09/19 11:05:42;;;;;;;1.58;1.40;;;;;;;21.71;49.01;101239.94;5067338;28;20036;-69
2021/09/19 11:08:19;;;;;;;2.55;1.40;;;;;;;21.60;49.09;101241.47;5063412;28;20071;-69
2021/09/19 11:10:44;;;;;;;1.88;1.25;;;;;;;21.38;50.42;101231.31;5069890;28;20086;-69
2021/09/19 11:13:26;;;;;;;4.78;1.80;;;;;;;21.29;49.77;101237.88;5068283;28;20459;-69
2021/09/19 11:16:03;;;;;;;1.73;1.23;;;;;;;21.34;50.16;101245.13;5064534;28;20086;-70
2021/09/19 11:18:31;;;;;;;2.20;1.48;;;;;;;21.07;50.30;101244.56;5067850;28;20425;-69
2021/09/19 11:21:18;;;;;;;1.85;1.27;;;;;;;20.88;50.96;101248.97;5069844;28;20401;-68
2021/09/19 11:23:52;;;;;;;3.47;1.60;;;;;;;21.08;51.75;101247.00;5059955;28;20069;-69
2021/09/19 11:26:19;;;;;;;1.52;1.30;;;;;;;21.12;50.68;101245.53;5070300;28;20036;-68